sensor_id;sensor_type;location;lat;lon;timestamp;P1;durP1;ratioP1;P2;durP2;ratioP2
55987;SDS011;75964;50.930;4.514;2024-01-30T00:02:12;11.13;;;7.38;;
55987;SDS011;75964;50.930;4.514;2024-01-30T00:04:38;10.82;;;7.35;;
55987;SDS011;75964;50.930;4.514;2024-01-30T00:07:03;15.57;;;7.65;;
55987;SDS011;75964;50.930;4.514;2024-01-30T00:09:29;14.13;;;7.38;;
55987;SDS011;75964;50.930;4.514;2024-01-30T00:11:55;11.77;;;6.97;;
55987;SDS011;75964;50.930;4.514;2024-01-30T00:14:21;11.35;;;8.10;;
55987;SDS011;75964;50.930;4.514;2024-01-30T00:16:48;13.38;;;7.97;;
55987;SDS011;75964;50.930;4.514;2024-01-30T00:19:14;13.07;;;8.10;;
55987;SDS011;75964;50.930;4.514;2024-01-30T00:21:39;11.30;;;7.00;;
55987;SDS011;75964;50.930;4.514;2024-01-30T00:24:06;15.30;;;7.20;;
55987;SDS011;75964;50.930;4.514;2024-01-30T00:26:31;13.68;;;7.18;;
55987;SDS011;75964;50.930;4.514;2024-01-30T00:28:57;15.27;;;7.82;;
55987;SDS011;75964;50.930;4.514;2024-01-30T00:31:23;11.82;;;7.43;;
55987;SDS011;75964;50.930;4.514;2024-01-30T00:33:49;13.40;;;6.72;;
55987;SDS011;75964;50.930;4.514;2024-01-30T00:36:15;15.40;;;6.97;;
55987;SDS011;75964;50.930;4.514;2024-01-30T00:38:41;14.57;;;6.47;;
55987;SDS011;75964;50.930;4.514;2024-01-30T00:41:10;15.20;;;6.47;;
55987;SDS011;75964;50.930;4.514;2024-01-30T00:43:36;11.48;;;6.25;;
55987;SDS011;75964;50.930;4.514;2024-01-30T00:46:02;13.10;;;7.25;;
55987;SDS011;75964;50.930;4.514;2024-01-30T00:48:28;10.63;;;7.13;;
55987;SDS011;75964;50.930;4.514;2024-01-30T00:50:54;9.75;;;6.88;;
55987;SDS011;75964;50.930;4.514;2024-01-30T00:53:20;13.95;;;7.13;;
55987;SDS011;75964;50.930;4.514;2024-01-30T00:55:46;9.45;;;6.15;;
55987;SDS011;75964;50.930;4.514;2024-01-30T00:58:11;8.65;;;6.53;;
55987;SDS011;75964;50.930;4.514;2024-01-30T01:00:37;10.85;;;6.32;;
55987;SDS011;75964;50.930;4.514;2024-01-30T01:03:03;10.10;;;5.95;;
55987;SDS011;75964;50.930;4.514;2024-01-30T01:05:29;8.07;;;6.22;;
55987;SDS011;75964;50.930;4.514;2024-01-30T01:07:55;9.38;;;6.30;;
55987;SDS011;75964;50.930;4.514;2024-01-30T01:10:21;11.38;;;6.30;;
55987;SDS011;75964;50.930;4.514;2024-01-30T01:12:47;11.63;;;7.13;;
55987;SDS011;75964;50.930;4.514;2024-01-30T01:15:13;10.05;;;6.70;;
55987;SDS011;75964;50.930;4.514;2024-01-30T01:17:40;11.82;;;6.68;;
55987;SDS011;75964;50.930;4.514;2024-01-30T01:20:06;10.30;;;7.07;;
55987;SDS011;75964;50.930;4.514;2024-01-30T01:22:33;9.18;;;6.03;;
55987;SDS011;75964;50.930;4.514;2024-01-30T01:24:59;10.50;;;6.57;;
55987;SDS011;75964;50.930;4.514;2024-01-30T01:27:25;11.35;;;6.10;;
55987;SDS011;75964;50.930;4.514;2024-01-30T01:29:52;9.38;;;6.13;;
55987;SDS011;75964;50.930;4.514;2024-01-30T01:32:18;9.05;;;6.05;;
55987;SDS011;75964;50.930;4.514;2024-01-30T01:34:44;9.77;;;6.38;;
55987;SDS011;75964;50.930;4.514;2024-01-30T01:37:10;8.65;;;6.07;;
55987;SDS011;75964;50.930;4.514;2024-01-30T01:39:35;10.48;;;6.95;;
55987;SDS011;75964;50.930;4.514;2024-01-30T01:42:01;9.55;;;6.32;;
55987;SDS011;75964;50.930;4.514;2024-01-30T01:44:27;11.10;;;6.07;;
55987;SDS011;75964;50.930;4.514;2024-01-30T01:46:53;11.32;;;6.43;;
55987;SDS011;75964;50.930;4.514;2024-01-30T01:49:20;11.18;;;6.38;;
55987;SDS011;75964;50.930;4.514;2024-01-30T01:51:48;8.13;;;5.82;;
55987;SDS011;75964;50.930;4.514;2024-01-30T01:54:14;8.82;;;5.80;;
55987;SDS011;75964;50.930;4.514;2024-01-30T01:56:41;14.88;;;6.50;;
55987;SDS011;75964;50.930;4.514;2024-01-30T01:59:08;9.93;;;6.10;;
55987;SDS011;75964;50.930;4.514;2024-01-30T02:01:37;11.95;;;6.45;;
55987;SDS011;75964;50.930;4.514;2024-01-30T02:04:03;11.43;;;5.82;;
55987;SDS011;75964;50.930;4.514;2024-01-30T02:06:29;10.98;;;6.13;;
55987;SDS011;75964;50.930;4.514;2024-01-30T02:08:55;9.98;;;6.15;;
55987;SDS011;75964;50.930;4.514;2024-01-30T02:11:21;11.55;;;5.65;;
55987;SDS011;75964;50.930;4.514;2024-01-30T02:13:49;9.40;;;5.95;;
55987;SDS011;75964;50.930;4.514;2024-01-30T02:16:15;9.35;;;6.55;;
55987;SDS011;75964;50.930;4.514;2024-01-30T02:18:42;10.60;;;6.13;;
55987;SDS011;75964;50.930;4.514;2024-01-30T02:21:11;9.03;;;6.17;;
55987;SDS011;75964;50.930;4.514;2024-01-30T02:23:37;10.52;;;6.53;;
55987;SDS011;75964;50.930;4.514;2024-01-30T02:26:04;10.13;;;6.35;;
55987;SDS011;75964;50.930;4.514;2024-01-30T02:28:30;9.52;;;6.32;;
55987;SDS011;75964;50.930;4.514;2024-01-30T02:30:55;10.95;;;6.95;;
55987;SDS011;75964;50.930;4.514;2024-01-30T02:33:21;10.60;;;6.55;;
55987;SDS011;75964;50.930;4.514;2024-01-30T02:35:47;11.05;;;6.63;;
55987;SDS011;75964;50.930;4.514;2024-01-30T02:38:15;9.20;;;6.30;;
55987;SDS011;75964;50.930;4.514;2024-01-30T02:40:41;8.38;;;5.75;;
55987;SDS011;75964;50.930;4.514;2024-01-30T02:43:07;13.63;;;6.57;;
55987;SDS011;75964;50.930;4.514;2024-01-30T02:45:32;9.70;;;6.03;;
55987;SDS011;75964;50.930;4.514;2024-01-30T02:47:58;12.35;;;6.25;;
55987;SDS011;75964;50.930;4.514;2024-01-30T02:50:24;9.85;;;6.22;;
55987;SDS011;75964;50.930;4.514;2024-01-30T02:52:49;9.52;;;5.95;;
55987;SDS011;75964;50.930;4.514;2024-01-30T02:55:15;12.65;;;6.80;;
55987;SDS011;75964;50.930;4.514;2024-01-30T02:57:43;10.75;;;7.03;;
55987;SDS011;75964;50.930;4.514;2024-01-30T03:00:08;9.65;;;6.65;;
55987;SDS011;75964;50.930;4.514;2024-01-30T03:02:35;12.10;;;7.13;;
55987;SDS011;75964;50.930;4.514;2024-01-30T03:05:01;15.75;;;7.45;;
55987;SDS011;75964;50.930;4.514;2024-01-30T03:07:28;10.50;;;6.90;;
55987;SDS011;75964;50.930;4.514;2024-01-30T03:09:54;10.13;;;6.13;;
55987;SDS011;75964;50.930;4.514;2024-01-30T03:12:20;11.98;;;7.30;;
55987;SDS011;75964;50.930;4.514;2024-01-30T03:14:46;12.20;;;6.43;;
55987;SDS011;75964;50.930;4.514;2024-01-30T03:17:12;13.48;;;7.30;;
55987;SDS011;75964;50.930;4.514;2024-01-30T03:19:38;12.25;;;7.00;;
55987;SDS011;75964;50.930;4.514;2024-01-30T03:22:04;12.73;;;6.00;;
55987;SDS011;75964;50.930;4.514;2024-01-30T03:24:29;12.60;;;6.00;;
55987;SDS011;75964;50.930;4.514;2024-01-30T03:26:55;10.27;;;5.90;;
55987;SDS011;75964;50.930;4.514;2024-01-30T03:29:21;12.52;;;5.85;;
55987;SDS011;75964;50.930;4.514;2024-01-30T03:31:47;11.40;;;6.20;;
55987;SDS011;75964;50.930;4.514;2024-01-30T03:34:12;11.35;;;6.05;;
55987;SDS011;75964;50.930;4.514;2024-01-30T03:36:38;12.10;;;6.18;;
55987;SDS011;75964;50.930;4.514;2024-01-30T03:39:04;9.50;;;5.90;;
55987;SDS011;75964;50.930;4.514;2024-01-30T03:41:32;9.73;;;6.15;;
55987;SDS011;75964;50.930;4.514;2024-01-30T03:43:58;10.05;;;5.70;;
55987;SDS011;75964;50.930;4.514;2024-01-30T03:46:24;17.27;;;6.85;;
55987;SDS011;75964;50.930;4.514;2024-01-30T03:48:50;12.55;;;7.18;;
55987;SDS011;75964;50.930;4.514;2024-01-30T03:51:15;11.32;;;6.75;;
55987;SDS011;75964;50.930;4.514;2024-01-30T03:53:41;13.90;;;6.78;;
55987;SDS011;75964;50.930;4.514;2024-01-30T03:56:08;11.30;;;6.93;;
55987;SDS011;75964;50.930;4.514;2024-01-30T03:58:34;15.05;;;7.70;;
55987;SDS011;75964;50.930;4.514;2024-01-30T04:01:00;12.30;;;6.57;;
55987;SDS011;75964;50.930;4.514;2024-01-30T04:03:25;10.77;;;5.97;;
55987;SDS011;75964;50.930;4.514;2024-01-30T04:05:51;11.93;;;5.70;;
55987;SDS011;75964;50.930;4.514;2024-01-30T04:08:17;9.55;;;5.30;;
55987;SDS011;75964;50.930;4.514;2024-01-30T04:10:43;8.98;;;5.50;;
55987;SDS011;75964;50.930;4.514;2024-01-30T04:13:09;9.23;;;5.75;;
55987;SDS011;75964;50.930;4.514;2024-01-30T04:15:35;8.95;;;5.20;;
55987;SDS011;75964;50.930;4.514;2024-01-30T04:18:00;9.75;;;5.57;;
55987;SDS011;75964;50.930;4.514;2024-01-30T04:20:26;8.68;;;6.28;;
55987;SDS011;75964;50.930;4.514;2024-01-30T04:22:52;15.10;;;6.07;;
55987;SDS011;75964;50.930;4.514;2024-01-30T04:25:18;8.48;;;5.63;;
55987;SDS011;75964;50.930;4.514;2024-01-30T04:27:43;9.15;;;5.93;;
55987;SDS011;75964;50.930;4.514;2024-01-30T04:30:09;12.50;;;7.00;;
55987;SDS011;75964;50.930;4.514;2024-01-30T04:32:35;11.10;;;6.45;;
55987;SDS011;75964;50.930;4.514;2024-01-30T04:35:02;10.73;;;6.68;;
55987;SDS011;75964;50.930;4.514;2024-01-30T04:37:28;9.25;;;5.93;;
55987;SDS011;75964;50.930;4.514;2024-01-30T04:39:54;8.43;;;5.70;;
55987;SDS011;75964;50.930;4.514;2024-01-30T04:42:19;10.27;;;5.95;;
55987;SDS011;75964;50.930;4.514;2024-01-30T04:44:45;11.32;;;6.22;;
55987;SDS011;75964;50.930;4.514;2024-01-30T04:47:10;9.60;;;5.85;;
55987;SDS011;75964;50.930;4.514;2024-01-30T04:49:38;8.90;;;5.40;;
55987;SDS011;75964;50.930;4.514;2024-01-30T04:52:07;10.25;;;5.70;;
55987;SDS011;75964;50.930;4.514;2024-01-30T04:54:34;10.00;;;5.90;;
55987;SDS011;75964;50.930;4.514;2024-01-30T04:57:00;11.50;;;5.90;;
55987;SDS011;75964;50.930;4.514;2024-01-30T04:59:30;9.13;;;5.25;;
55987;SDS011;75964;50.930;4.514;2024-01-30T05:01:56;9.60;;;5.75;;
55987;SDS011;75964;50.930;4.514;2024-01-30T05:04:22;10.05;;;5.45;;
55987;SDS011;75964;50.930;4.514;2024-01-30T05:06:47;9.27;;;5.90;;
55987;SDS011;75964;50.930;4.514;2024-01-30T05:09:13;10.07;;;6.03;;
55987;SDS011;75964;50.930;4.514;2024-01-30T05:11:39;12.35;;;5.90;;
55987;SDS011;75964;50.930;4.514;2024-01-30T05:14:05;11.65;;;5.82;;
55987;SDS011;75964;50.930;4.514;2024-01-30T05:16:32;13.75;;;5.82;;
55987;SDS011;75964;50.930;4.514;2024-01-30T05:18:58;9.65;;;5.18;;
55987;SDS011;75964;50.930;4.514;2024-01-30T05:21:24;12.65;;;6.45;;
55987;SDS011;75964;50.930;4.514;2024-01-30T05:23:50;11.80;;;6.03;;
55987;SDS011;75964;50.930;4.514;2024-01-30T05:26:15;10.27;;;6.20;;
55987;SDS011;75964;50.930;4.514;2024-01-30T05:28:41;12.10;;;5.72;;
55987;SDS011;75964;50.930;4.514;2024-01-30T05:31:09;11.77;;;5.70;;
55987;SDS011;75964;50.930;4.514;2024-01-30T05:33:35;10.98;;;6.03;;
55987;SDS011;75964;50.930;4.514;2024-01-30T05:36:01;12.75;;;6.30;;
55987;SDS011;75964;50.930;4.514;2024-01-30T05:38:30;15.98;;;8.88;;
55987;SDS011;75964;50.930;4.514;2024-01-30T05:40:57;7.68;;;5.72;;
55987;SDS011;75964;50.930;4.514;2024-01-30T05:43:23;13.35;;;6.25;;
55987;SDS011;75964;50.930;4.514;2024-01-30T05:45:49;9.73;;;6.00;;
55987;SDS011;75964;50.930;4.514;2024-01-30T05:48:16;11.55;;;6.05;;
55987;SDS011;75964;50.930;4.514;2024-01-30T05:50:44;13.18;;;5.82;;
55987;SDS011;75964;50.930;4.514;2024-01-30T05:53:10;14.27;;;6.60;;
55987;SDS011;75964;50.930;4.514;2024-01-30T05:55:36;10.35;;;5.72;;
55987;SDS011;75964;50.930;4.514;2024-01-30T05:58:02;10.35;;;5.85;;
55987;SDS011;75964;50.930;4.514;2024-01-30T06:00:27;11.48;;;6.35;;
55987;SDS011;75964;50.930;4.514;2024-01-30T06:02:53;13.52;;;6.38;;
55987;SDS011;75964;50.930;4.514;2024-01-30T06:05:19;9.52;;;6.25;;
55987;SDS011;75964;50.930;4.514;2024-01-30T06:07:44;13.27;;;5.97;;
55987;SDS011;75964;50.930;4.514;2024-01-30T06:10:10;8.88;;;5.70;;
55987;SDS011;75964;50.930;4.514;2024-01-30T06:12:35;9.15;;;5.82;;
55987;SDS011;75964;50.930;4.514;2024-01-30T06:15:01;9.60;;;6.20;;
55987;SDS011;75964;50.930;4.514;2024-01-30T06:17:28;10.93;;;6.28;;
55987;SDS011;75964;50.930;4.514;2024-01-30T06:19:53;11.95;;;6.90;;
55987;SDS011;75964;50.930;4.514;2024-01-30T06:22:19;9.90;;;6.00;;
55987;SDS011;75964;50.930;4.514;2024-01-30T06:24:45;11.05;;;6.50;;
55987;SDS011;75964;50.930;4.514;2024-01-30T06:27:13;9.32;;;5.82;;
55987;SDS011;75964;50.930;4.514;2024-01-30T06:29:38;10.13;;;6.35;;
55987;SDS011;75964;50.930;4.514;2024-01-30T06:32:05;10.98;;;6.13;;
55987;SDS011;75964;50.930;4.514;2024-01-30T06:34:31;8.73;;;6.00;;
55987;SDS011;75964;50.930;4.514;2024-01-30T06:36:56;10.05;;;6.32;;
55987;SDS011;75964;50.930;4.514;2024-01-30T06:39:22;12.32;;;6.32;;
55987;SDS011;75964;50.930;4.514;2024-01-30T06:41:48;10.02;;;6.60;;
55987;SDS011;75964;50.930;4.514;2024-01-30T06:44:14;13.30;;;6.38;;
55987;SDS011;75964;50.930;4.514;2024-01-30T06:46:40;9.15;;;6.50;;
55987;SDS011;75964;50.930;4.514;2024-01-30T06:49:05;13.55;;;6.18;;
55987;SDS011;75964;50.930;4.514;2024-01-30T06:51:31;10.85;;;5.90;;
55987;SDS011;75964;50.930;4.514;2024-01-30T06:53:57;11.73;;;6.47;;
55987;SDS011;75964;50.930;4.514;2024-01-30T06:56:23;9.95;;;6.63;;
55987;SDS011;75964;50.930;4.514;2024-01-30T06:58:48;10.57;;;6.07;;
55987;SDS011;75964;50.930;4.514;2024-01-30T07:01:15;12.02;;;5.57;;
55987;SDS011;75964;50.930;4.514;2024-01-30T07:03:41;11.38;;;5.75;;
55987;SDS011;75964;50.930;4.514;2024-01-30T07:06:07;9.95;;;6.25;;
55987;SDS011;75964;50.930;4.514;2024-01-30T07:08:34;7.50;;;5.70;;
55987;SDS011;75964;50.930;4.514;2024-01-30T07:10:59;9.85;;;5.80;;
55987;SDS011;75964;50.930;4.514;2024-01-30T07:13:25;9.95;;;6.32;;
55987;SDS011;75964;50.930;4.514;2024-01-30T07:15:51;11.20;;;7.28;;
55987;SDS011;75964;50.930;4.514;2024-01-30T07:18:16;14.13;;;6.78;;
55987;SDS011;75964;50.930;4.514;2024-01-30T07:20:42;10.48;;;6.10;;
55987;SDS011;75964;50.930;4.514;2024-01-30T07:23:12;11.50;;;6.63;;
55987;SDS011;75964;50.930;4.514;2024-01-30T07:25:40;11.67;;;7.50;;
55987;SDS011;75964;50.930;4.514;2024-01-30T07:28:09;11.65;;;6.85;;
55987;SDS011;75964;50.930;4.514;2024-01-30T07:30:36;9.73;;;6.50;;
55987;SDS011;75964;50.930;4.514;2024-01-30T07:33:01;10.07;;;6.57;;
55987;SDS011;75964;50.930;4.514;2024-01-30T07:35:27;11.65;;;6.30;;
55987;SDS011;75964;50.930;4.514;2024-01-30T07:37:53;9.23;;;6.32;;
55987;SDS011;75964;50.930;4.514;2024-01-30T07:40:19;12.65;;;6.93;;
55987;SDS011;75964;50.930;4.514;2024-01-30T07:42:44;9.15;;;6.78;;
55987;SDS011;75964;50.930;4.514;2024-01-30T07:45:10;11.55;;;5.75;;
55987;SDS011;75964;50.930;4.514;2024-01-30T07:47:36;12.43;;;6.72;;
55987;SDS011;75964;50.930;4.514;2024-01-30T07:50:02;11.20;;;6.32;;
55987;SDS011;75964;50.930;4.514;2024-01-30T07:52:28;11.32;;;6.57;;
55987;SDS011;75964;50.930;4.514;2024-01-30T07:54:54;11.50;;;6.70;;
55987;SDS011;75964;50.930;4.514;2024-01-30T07:57:20;12.65;;;6.35;;
55987;SDS011;75964;50.930;4.514;2024-01-30T07:59:46;13.13;;;7.18;;
55987;SDS011;75964;50.930;4.514;2024-01-30T08:02:12;12.93;;;6.80;;
55987;SDS011;75964;50.930;4.514;2024-01-30T08:04:38;10.30;;;6.20;;
55987;SDS011;75964;50.930;4.514;2024-01-30T08:07:04;14.10;;;6.97;;
55987;SDS011;75964;50.930;4.514;2024-01-30T08:09:29;16.38;;;6.32;;
55987;SDS011;75964;50.930;4.514;2024-01-30T08:11:55;14.85;;;7.20;;
55987;SDS011;75964;50.930;4.514;2024-01-30T08:14:21;13.52;;;6.82;;
55987;SDS011;75964;50.930;4.514;2024-01-30T08:16:47;11.40;;;6.78;;
55987;SDS011;75964;50.930;4.514;2024-01-30T08:19:13;11.70;;;6.22;;
55987;SDS011;75964;50.930;4.514;2024-01-30T08:21:39;17.30;;;7.47;;
55987;SDS011;75964;50.930;4.514;2024-01-30T08:24:05;14.60;;;6.57;;
55987;SDS011;75964;50.930;4.514;2024-01-30T08:26:32;15.13;;;7.13;;
55987;SDS011;75964;50.930;4.514;2024-01-30T08:28:58;14.18;;;7.35;;
55987;SDS011;75964;50.930;4.514;2024-01-30T08:31:24;13.15;;;6.45;;
55987;SDS011;75964;50.930;4.514;2024-01-30T08:33:50;17.58;;;7.28;;
55987;SDS011;75964;50.930;4.514;2024-01-30T08:36:16;17.55;;;7.40;;
55987;SDS011;75964;50.930;4.514;2024-01-30T08:38:42;14.18;;;7.43;;
55987;SDS011;75964;50.930;4.514;2024-01-30T08:41:08;14.88;;;7.55;;
55987;SDS011;75964;50.930;4.514;2024-01-30T08:43:34;16.02;;;7.32;;
55987;SDS011;75964;50.930;4.514;2024-01-30T08:46:00;14.55;;;6.93;;
55987;SDS011;75964;50.930;4.514;2024-01-30T08:48:25;17.42;;;7.55;;
55987;SDS011;75964;50.930;4.514;2024-01-30T08:50:51;16.15;;;7.72;;
55987;SDS011;75964;50.930;4.514;2024-01-30T08:53:17;17.92;;;7.07;;
55987;SDS011;75964;50.930;4.514;2024-01-30T08:55:43;16.80;;;7.05;;
55987;SDS011;75964;50.930;4.514;2024-01-30T08:58:09;14.40;;;6.88;;
55987;SDS011;75964;50.930;4.514;2024-01-30T09:00:35;16.63;;;7.30;;
55987;SDS011;75964;50.930;4.514;2024-01-30T09:03:00;15.98;;;7.13;;
55987;SDS011;75964;50.930;4.514;2024-01-30T09:05:26;12.95;;;7.10;;
55987;SDS011;75964;50.930;4.514;2024-01-30T09:07:52;15.30;;;7.45;;
55987;SDS011;75964;50.930;4.514;2024-01-30T09:10:17;14.85;;;7.05;;
55987;SDS011;75964;50.930;4.514;2024-01-30T09:12:43;16.40;;;7.97;;
55987;SDS011;75964;50.930;4.514;2024-01-30T09:15:09;12.90;;;7.10;;
55987;SDS011;75964;50.930;4.514;2024-01-30T09:17:34;16.02;;;7.40;;
55987;SDS011;75964;50.930;4.514;2024-01-30T09:20:00;13.65;;;7.65;;
55987;SDS011;75964;50.930;4.514;2024-01-30T09:22:26;17.58;;;7.47;;
55987;SDS011;75964;50.930;4.514;2024-01-30T09:24:51;12.25;;;7.20;;
55987;SDS011;75964;50.930;4.514;2024-01-30T09:27:17;16.17;;;8.23;;
55987;SDS011;75964;50.930;4.514;2024-01-30T09:29:43;14.77;;;8.15;;
55987;SDS011;75964;50.930;4.514;2024-01-30T09:32:08;14.00;;;7.75;;
55987;SDS011;75964;50.930;4.514;2024-01-30T09:34:34;18.20;;;7.90;;
55987;SDS011;75964;50.930;4.514;2024-01-30T09:37:00;16.50;;;8.25;;
55987;SDS011;75964;50.930;4.514;2024-01-30T09:39:26;19.95;;;7.97;;
55987;SDS011;75964;50.930;4.514;2024-01-30T09:42:01;14.63;;;8.00;;
55987;SDS011;75964;50.930;4.514;2024-01-30T09:44:31;17.23;;;8.07;;
55987;SDS011;75964;50.930;4.514;2024-01-30T09:47:00;19.63;;;8.10;;
55987;SDS011;75964;50.930;4.514;2024-01-30T09:49:29;17.95;;;7.70;;
55987;SDS011;75964;50.930;4.514;2024-01-30T09:52:00;17.85;;;8.70;;
55987;SDS011;75964;50.930;4.514;2024-01-30T09:54:28;19.90;;;9.35;;
55987;SDS011;75964;50.930;4.514;2024-01-30T09:56:55;14.52;;;8.23;;
55987;SDS011;75964;50.930;4.514;2024-01-30T09:59:21;22.60;;;9.00;;
55987;SDS011;75964;50.930;4.514;2024-01-30T10:01:46;14.25;;;8.73;;
55987;SDS011;75964;50.930;4.514;2024-01-30T10:04:13;17.10;;;9.18;;
55987;SDS011;75964;50.930;4.514;2024-01-30T10:06:38;21.30;;;9.52;;
55987;SDS011;75964;50.930;4.514;2024-01-30T10:09:05;17.42;;;9.32;;
55987;SDS011;75964;50.930;4.514;2024-01-30T10:11:31;20.58;;;10.85;;
55987;SDS011;75964;50.930;4.514;2024-01-30T10:13:57;17.80;;;10.57;;
55987;SDS011;75964;50.930;4.514;2024-01-30T10:16:22;27.73;;;10.82;;
55987;SDS011;75964;50.930;4.514;2024-01-30T10:18:48;24.80;;;11.95;;
55987;SDS011;75964;50.930;4.514;2024-01-30T10:21:14;22.55;;;12.10;;
55987;SDS011;75964;50.930;4.514;2024-01-30T10:23:40;26.10;;;13.60;;
55987;SDS011;75964;50.930;4.514;2024-01-30T10:26:06;23.83;;;11.82;;
55987;SDS011;75964;50.930;4.514;2024-01-30T10:28:33;22.55;;;12.07;;
55987;SDS011;75964;50.930;4.514;2024-01-30T10:30:59;21.70;;;12.48;;
55987;SDS011;75964;50.930;4.514;2024-01-30T10:33:28;26.38;;;14.00;;
55987;SDS011;75964;50.930;4.514;2024-01-30T10:36:01;25.17;;;13.82;;
55987;SDS011;75964;50.930;4.514;2024-01-30T10:38:28;20.67;;;12.25;;
55987;SDS011;75964;50.930;4.514;2024-01-30T10:40:58;25.42;;;13.77;;
55987;SDS011;75964;50.930;4.514;2024-01-30T10:43:39;29.33;;;13.00;;
55987;SDS011;75964;50.930;4.514;2024-01-30T10:46:10;20.48;;;12.27;;
55987;SDS011;75964;50.930;4.514;2024-01-30T10:48:43;25.02;;;12.65;;
55987;SDS011;75964;50.930;4.514;2024-01-30T10:51:12;28.38;;;12.98;;
55987;SDS011;75964;50.930;4.514;2024-01-30T10:53:39;25.80;;;10.30;;
55987;SDS011;75964;50.930;4.514;2024-01-30T10:56:06;22.98;;;11.68;;
55987;SDS011;75964;50.930;4.514;2024-01-30T10:58:33;21.17;;;10.65;;
55987;SDS011;75964;50.930;4.514;2024-01-30T11:00:58;23.35;;;11.82;;
55987;SDS011;75964;50.930;4.514;2024-01-30T11:03:24;20.13;;;10.23;;
55987;SDS011;75964;50.930;4.514;2024-01-30T11:05:51;18.13;;;9.90;;
55987;SDS011;75964;50.930;4.514;2024-01-30T11:08:24;24.58;;;9.93;;
55987;SDS011;75964;50.930;4.514;2024-01-30T11:10:54;19.55;;;10.48;;
55987;SDS011;75964;50.930;4.514;2024-01-30T11:13:21;20.38;;;9.40;;
55987;SDS011;75964;50.930;4.514;2024-01-30T11:15:47;15.63;;;9.32;;
55987;SDS011;75964;50.930;4.514;2024-01-30T11:18:22;20.30;;;9.32;;
55987;SDS011;75964;50.930;4.514;2024-01-30T11:20:55;19.67;;;9.48;;
55987;SDS011;75964;50.930;4.514;2024-01-30T11:23:22;11.57;;;7.63;;
55987;SDS011;75964;50.930;4.514;2024-01-30T11:25:48;19.30;;;9.38;;
55987;SDS011;75964;50.930;4.514;2024-01-30T11:28:14;18.10;;;7.05;;
55987;SDS011;75964;50.930;4.514;2024-01-30T11:30:41;15.32;;;5.97;;
55987;SDS011;75964;50.930;4.514;2024-01-30T11:33:08;9.98;;;4.10;;
55987;SDS011;75964;50.930;4.514;2024-01-30T11:38:05;7.50;;;2.70;;
55987;SDS011;75964;50.930;4.514;2024-01-30T11:40:31;7.22;;;2.30;;
55987;SDS011;75964;50.930;4.514;2024-01-30T11:42:58;4.30;;;2.05;;
55987;SDS011;75964;50.930;4.514;2024-01-30T11:45:26;11.05;;;2.10;;
55987;SDS011;75964;50.930;4.514;2024-01-30T11:47:54;5.43;;;1.40;;
55987;SDS011;75964;50.930;4.514;2024-01-30T11:50:20;7.70;;;1.75;;
55987;SDS011;75964;50.930;4.514;2024-01-30T11:52:47;7.38;;;1.30;;
55987;SDS011;75964;50.930;4.514;2024-01-30T11:55:13;4.28;;;1.13;;
55987;SDS011;75964;50.930;4.514;2024-01-30T11:57:40;8.93;;;1.95;;
55987;SDS011;75964;50.930;4.514;2024-01-30T12:00:06;7.20;;;1.10;;
55987;SDS011;75964;50.930;4.514;2024-01-30T12:02:39;4.97;;;1.17;;
55987;SDS011;75964;50.930;4.514;2024-01-30T12:05:05;8.38;;;0.80;;
55987;SDS011;75964;50.930;4.514;2024-01-30T12:07:32;2.90;;;0.65;;
55987;SDS011;75964;50.930;4.514;2024-01-30T12:09:58;3.55;;;0.82;;
55987;SDS011;75964;50.930;4.514;2024-01-30T12:12:24;3.20;;;0.82;;
55987;SDS011;75964;50.930;4.514;2024-01-30T12:14:51;5.43;;;1.13;;
55987;SDS011;75964;50.930;4.514;2024-01-30T12:17:28;2.28;;;0.60;;
55987;SDS011;75964;50.930;4.514;2024-01-30T12:22:37;4.00;;;0.70;;
55987;SDS011;75964;50.930;4.514;2024-01-30T12:25:10;3.65;;;0.75;;
55987;SDS011;75964;50.930;4.514;2024-01-30T12:27:37;4.97;;;0.90;;
55987;SDS011;75964;50.930;4.514;2024-01-30T12:32:36;3.88;;;0.93;;
55987;SDS011;75964;50.930;4.514;2024-01-30T12:35:20;4.45;;;0.73;;
55987;SDS011;75964;50.930;4.514;2024-01-30T12:37:47;5.22;;;0.88;;
55987;SDS011;75964;50.930;4.514;2024-01-30T12:40:14;6.75;;;0.90;;
55987;SDS011;75964;50.930;4.514;2024-01-30T12:42:43;5.55;;;1.33;;
55987;SDS011;75964;50.930;4.514;2024-01-30T12:45:13;6.93;;;1.20;;
55987;SDS011;75964;50.930;4.514;2024-01-30T12:47:40;4.55;;;1.10;;
55987;SDS011;75964;50.930;4.514;2024-01-30T12:50:07;8.18;;;1.90;;
55987;SDS011;75964;50.930;4.514;2024-01-30T12:52:33;4.70;;;1.98;;
55987;SDS011;75964;50.930;4.514;2024-01-30T12:55:00;6.90;;;1.15;;
55987;SDS011;75964;50.930;4.514;2024-01-30T12:57:26;7.03;;;1.40;;
55987;SDS011;75964;50.930;4.514;2024-01-30T12:59:52;5.35;;;1.13;;
55987;SDS011;75964;50.930;4.514;2024-01-30T13:02:17;5.45;;;1.38;;
55987;SDS011;75964;50.930;4.514;2024-01-30T13:04:43;4.97;;;1.10;;
55987;SDS011;75964;50.930;4.514;2024-01-30T13:07:09;9.25;;;1.85;;
55987;SDS011;75964;50.930;4.514;2024-01-30T13:09:35;9.63;;;2.60;;
55987;SDS011;75964;50.930;4.514;2024-01-30T13:12:01;10.30;;;3.10;;
55987;SDS011;75964;50.930;4.514;2024-01-30T13:14:27;16.05;;;3.80;;
55987;SDS011;75964;50.930;4.514;2024-01-30T13:16:52;9.15;;;2.20;;
55987;SDS011;75964;50.930;4.514;2024-01-30T13:19:18;8.75;;;1.63;;
55987;SDS011;75964;50.930;4.514;2024-01-30T13:21:44;9.38;;;1.20;;
55987;SDS011;75964;50.930;4.514;2024-01-30T13:24:09;5.07;;;1.13;;
55987;SDS011;75964;50.930;4.514;2024-01-30T13:26:35;5.07;;;1.10;;
55987;SDS011;75964;50.930;4.514;2024-01-30T13:29:01;7.03;;;1.48;;
55987;SDS011;75964;50.930;4.514;2024-01-30T13:31:27;15.77;;;1.50;;
55987;SDS011;75964;50.930;4.514;2024-01-30T13:33:53;3.95;;;0.88;;
55987;SDS011;75964;50.930;4.514;2024-01-30T13:36:19;4.95;;;1.02;;
55987;SDS011;75964;50.930;4.514;2024-01-30T13:38:46;10.93;;;1.92;;
55987;SDS011;75964;50.930;4.514;2024-01-30T13:41:12;4.97;;;1.48;;
55987;SDS011;75964;50.930;4.514;2024-01-30T13:43:37;8.05;;;1.70;;
55987;SDS011;75964;50.930;4.514;2024-01-30T13:46:03;8.23;;;1.67;;
55987;SDS011;75964;50.930;4.514;2024-01-30T13:48:29;7.00;;;1.13;;
55987;SDS011;75964;50.930;4.514;2024-01-30T13:50:56;10.95;;;1.65;;
55987;SDS011;75964;50.930;4.514;2024-01-30T13:53:21;10.23;;;1.10;;
55987;SDS011;75964;50.930;4.514;2024-01-30T13:55:47;5.28;;;1.48;;
55987;SDS011;75964;50.930;4.514;2024-01-30T13:58:13;5.57;;;1.48;;
55987;SDS011;75964;50.930;4.514;2024-01-30T14:00:38;10.27;;;1.35;;
55987;SDS011;75964;50.930;4.514;2024-01-30T14:03:04;6.43;;;1.38;;
55987;SDS011;75964;50.930;4.514;2024-01-30T14:05:30;5.88;;;1.45;;
55987;SDS011;75964;50.930;4.514;2024-01-30T14:07:56;8.15;;;1.67;;
55987;SDS011;75964;50.930;4.514;2024-01-30T14:10:23;6.28;;;1.55;;
55987;SDS011;75964;50.930;4.514;2024-01-30T14:12:49;4.60;;;1.08;;
55987;SDS011;75964;50.930;4.514;2024-01-30T14:15:14;7.95;;;1.60;;
55987;SDS011;75964;50.930;4.514;2024-01-30T14:17:42;7.45;;;1.25;;
55987;SDS011;75964;50.930;4.514;2024-01-30T14:20:08;7.72;;;1.52;;
55987;SDS011;75964;50.930;4.514;2024-01-30T14:22:35;6.93;;;1.75;;
55987;SDS011;75964;50.930;4.514;2024-01-30T14:25:02;3.72;;;1.13;;
55987;SDS011;75964;50.930;4.514;2024-01-30T14:27:31;6.47;;;1.55;;
55987;SDS011;75964;50.930;4.514;2024-01-30T14:29:57;7.82;;;1.58;;
55987;SDS011;75964;50.930;4.514;2024-01-30T14:32:23;4.90;;;1.70;;
55987;SDS011;75964;50.930;4.514;2024-01-30T14:34:50;7.50;;;1.50;;
55987;SDS011;75964;50.930;4.514;2024-01-30T14:37:17;7.50;;;1.38;;
55987;SDS011;75964;50.930;4.514;2024-01-30T14:39:43;6.15;;;1.30;;
55987;SDS011;75964;50.930;4.514;2024-01-30T14:42:09;6.30;;;1.40;;